Time;durP1;ratioP1;P1;durP2;ratioP2;P2;SDS_P1;SDS_P2;PMS_P1;PMS_P2;Temp;Humidity;BMP_temperature;BMP_pressure;BME280_temperature;BME280_humidity;BME280_pressure;Samples;Min_cycle;Max_cycle;Signal;HPM_P1;HPM_P2
2024/03/02 00:00:49;;;;;;;3.97;3.27;;;8.50;99.90;;;;;;810908;177;26727;-80
2024/03/02 00:03:16;;;;;;;3.70;2.83;;;8.60;99.90;;;;;;810015;177;26426;-77
2024/03/02 00:05:42;;;;;;;5.87;3.53;;;8.60;99.90;;;;;;785672;179;26525;-78
2024/03/02 00:08:09;;;;;;;8.27;3.40;;;8.50;99.90;;;;;;785461;180;26645;-78
2024/03/02 00:10:41;;;;;;;3.77;2.97;;;8.50;99.90;;;;;;785038;179;26995;-78
2024/03/02 00:13:07;;;;;;;4.80;3.30;;;8.50;99.90;;;;;;785823;180;26630;-77
2024/03/02 00:15:50;;;;;;;5.50;3.70;;;8.50;99.90;;;;;;789257;181;26496;-77
2024/03/02 00:18:18;;;;;;;4.90;3.13;;;8.40;99.90;;;;;;787523;179;26491;-78
2024/03/02 00:20:46;;;;;;;3.60;2.90;;;8.50;99.90;;;;;;809015;177;26454;-78
2024/03/02 00:23:12;;;;;;;5.43;2.77;;;8.50;99.90;;;;;;810374;177;26485;-77
2024/03/02 00:25:42;;;;;;;7.07;2.73;;;8.50;99.90;;;;;;790665;179;26464;-78
2024/03/02 00:28:15;;;;;;;5.00;3.23;;;8.50;99.90;;;;;;786941;181;26443;-78
2024/03/02 00:30:59;;;;;;;6.23;2.80;;;8.60;99.90;;;;;;803900;177;26428;-78
2024/03/02 00:33:27;;;;;;;4.37;3.03;;;8.70;99.90;;;;;;812213;177;26438;-77
2024/03/02 00:35:53;;;;;;;4.10;3.00;;;8.70;99.90;;;;;;811602;177;26459;-77
2024/03/02 00:38:20;;;;;;;3.87;2.63;;;8.70;99.90;;;;;;786931;179;27110;-77
2024/03/02 00:40:46;;;;;;;5.30;3.20;;;8.70;99.90;;;;;;784830;180;26461;-77
2024/03/02 00:43:44;;;;;;;4.43;3.00;;;8.70;99.90;;;;;;786231;180;26533;-77
2024/03/02 00:46:11;;;;;;;4.50;2.90;;;8.70;99.90;;;;;;805020;177;26573;-78
2024/03/02 00:48:38;;;;;;;4.50;3.03;;;8.80;99.90;;;;;;787457;179;26484;-78
2024/03/02 00:51:04;;;;;;;3.50;3.13;;;8.80;99.90;;;;;;785474;181;26487;-78
2024/03/02 00:53:32;;;;;;;2.77;2.50;;;8.70;99.90;;;;;;811018;176;26988;-77
2024/03/02 00:55:58;;;;;;;4.47;2.60;;;8.80;99.90;;;;;;814982;175;26418;-79
2024/03/02 00:58:24;;;;;;;4.80;2.90;;;8.80;99.90;;;;;;791751;180;26467;-78
2024/03/02 01:00:51;;;;;;;3.60;2.73;;;8.70;99.90;;;;;;786417;180;26466;-79
2024/03/02 01:03:19;;;;;;;5.67;3.40;;;8.70;99.90;;;;;;813130;177;26467;-78
2024/03/02 01:05:44;;;;;;;3.80;3.10;;;8.70;99.90;;;;;;797247;179;26489;-78
2024/03/02 01:08:11;;;;;;;4.63;2.50;;;8.70;99.90;;;;;;791470;180;27018;-78
2024/03/02 01:10:38;;;;;;;4.20;3.10;;;8.60;99.90;;;;;;780786;181;26454;-79
2024/03/02 01:13:05;;;;;;;4.93;2.80;;;8.60;99.90;;;;;;782654;180;26515;-77
2024/03/02 01:15:32;;;;;;;5.90;2.83;;;8.60;99.90;;;;;;786027;180;26460;-79
2024/03/02 01:17:58;;;;;;;4.73;3.20;;;8.60;99.90;;;;;;810365;177;26707;-78
2024/03/02 01:20:24;;;;;;;3.53;2.70;;;8.50;99.90;;;;;;811721;177;26418;-80
2024/03/02 01:22:52;;;;;;;4.33;2.90;;;8.40;99.90;;;;;;788239;180;26467;-80
2024/03/02 01:25:18;;;;;;;4.00;3.10;;;8.40;99.90;;;;;;784210;183;26477;-79
2024/03/02 01:27:44;;;;;;;4.07;2.97;;;8.40;99.90;;;;;;813017;177;26447;-78
2024/03/02 01:30:11;;;;;;;3.83;2.73;;;8.50;99.90;;;;;;814361;176;26406;-79
2024/03/02 01:32:39;;;;;;;4.17;3.17;;;8.40;99.90;;;;;;814364;176;26394;-79
2024/03/02 01:35:06;;;;;;;5.40;3.37;;;8.40;99.90;;;;;;783305;181;26500;-78
2024/03/02 01:37:32;;;;;;;2.90;2.57;;;8.40;99.90;;;;;;783919;181;26470;-79
2024/03/02 01:39:59;;;;;;;3.80;2.80;;;8.50;99.90;;;;;;813941;177;26405;-78
2024/03/02 01:42:25;;;;;;;5.20;2.90;;;8.50;99.90;;;;;;813786;177;26393;-79
2024/03/02 01:44:52;;;;;;;3.53;2.73;;;8.50;99.90;;;;;;792220;180;26477;-79
2024/03/02 01:47:19;;;;;;;4.60;3.10;;;8.60;99.90;;;;;;813949;177;26442;-79
2024/03/02 01:49:45;;;;;;;3.53;2.80;;;8.60;99.90;;;;;;796729;177;26449;-80
2024/03/02 01:52:12;;;;;;;4.00;2.70;;;8.60;99.90;;;;;;793612;179;26438;-79
2024/03/02 01:54:38;;;;;;;5.37;3.27;;;8.60;99.90;;;;;;810348;177;26446;-76
2024/03/02 01:57:06;;;;;;;3.67;2.60;;;8.60;99.90;;;;;;790096;180;26457;-78
2024/03/02 01:59:32;;;;;;;4.87;2.80;;;8.70;99.90;;;;;;813991;174;26415;-79
2024/03/02 02:01:58;;;;;;;2.90;2.57;;;8.70;99.90;;;;;;794643;179;26435;-78
2024/03/02 02:04:27;;;;;;;3.47;2.60;;;8.70;99.90;;;;;;814361;175;26450;-79
2024/03/02 02:06:51;;;;;;;3.90;2.60;;;8.70;99.90;;;;;;813479;173;26413;-77
2024/03/02 02:09:18;;;;;;;5.30;3.80;;;8.70;99.90;;;;;;794593;179;26463;-80
2024/03/02 02:11:45;;;;;;;5.80;3.37;;;8.70;99.90;;;;;;786701;180;26477;-77
2024/03/02 02:14:11;;;;;;;7.13;3.27;;;8.70;99.90;;;;;;786394;181;26494;-77
2024/03/02 02:16:38;;;;;;;4.40;2.50;;;8.70;99.90;;;;;;790068;179;27076;-77
2024/03/02 02:19:05;;;;;;;4.13;3.07;;;8.70;99.90;;;;;;809850;177;26410;-77
2024/03/02 02:21:31;;;;;;;3.77;2.57;;;8.70;99.90;;;;;;811519;177;26987;-78
2024/03/02 02:23:58;;;;;;;3.53;2.50;;;8.70;99.90;;;;;;808370;177;26434;-78
2024/03/02 02:26:24;;;;;;;3.97;2.77;;;8.60;99.90;;;;;;809972;177;27674;-78
2024/03/02 02:28:51;;;;;;;3.90;2.70;;;8.60;99.90;;;;;;807696;177;26494;-78
2024/03/02 02:31:17;;;;;;;4.07;2.70;;;8.70;99.90;;;;;;808451;177;26463;-78
2024/03/02 02:33:44;;;;;;;6.33;2.67;;;8.70;99.90;;;;;;810047;177;26510;-78
2024/03/02 02:36:11;;;;;;;5.30;3.17;;;8.70;99.90;;;;;;810556;177;26486;-78
2024/03/02 02:38:38;;;;;;;4.87;2.67;;;8.70;99.90;;;;;;811963;176;26459;-79
2024/03/02 02:41:20;;;;;;;3.90;2.57;;;8.70;99.90;;;;;;798193;170;26568;-79
2024/03/02 02:43:58;;;;;;;4.70;2.67;;;8.70;99.90;;;;;;778570;182;26458;-78
2024/03/02 02:46:35;;;;;;;3.87;2.50;;;8.80;99.90;;;;;;799197;179;27063;-80
2024/03/02 02:49:17;;;;;;;3.60;2.27;;;8.80;99.90;;;;;;800014;177;26511;-81
2024/03/02 02:51:58;;;;;;;4.40;2.70;;;8.70;99.90;;;;;;798239;178;26443;-79
2024/03/02 02:57:17;;;;;;;5.07;2.50;;;8.70;99.90;;;;;;806574;175;26459;-79
2024/03/02 02:59:50;;;;;;;4.07;2.60;;;8.70;99.90;;;;;;802825;176;27097;-81
2024/03/02 03:04:57;;;;;;;5.53;2.40;;;8.70;99.90;;;;;;812181;174;26964;-80
2024/03/02 03:07:25;;;;;;;4.27;2.80;;;8.70;99.90;;;;;;802310;176;26483;-80
2024/03/02 03:12:45;;;;;;;3.73;2.80;;;8.70;99.90;;;;;;799748;174;26407;-80
2024/03/02 03:15:21;;;;;;;3.47;2.50;;;8.70;99.90;;;;;;802842;173;26432;-80
2024/03/02 03:17:50;;;;;;;4.00;2.70;;;8.70;99.90;;;;;;803711;176;26428;-80
2024/03/02 03:20:21;;;;;;;3.47;2.57;;;8.70;99.90;;;;;;799622;177;26452;-80
2024/03/02 03:22:54;;;;;;;5.27;3.00;;;8.70;99.90;;;;;;801765;176;26445;-81
2024/03/02 03:25:24;;;;;;;4.13;3.00;;;8.70;99.90;;;;;;807363;176;26429;-80
2024/03/02 03:27:53;;;;;;;5.13;2.80;;;8.60;99.90;;;;;;802448;176;26437;-80
2024/03/02 03:30:22;;;;;;;4.80;2.80;;;8.60;99.90;;;;;;804111;176;26442;-81
2024/03/02 03:33:02;;;;;;;4.47;2.80;;;8.60;99.90;;;;;;802998;176;26444;-79
2024/03/02 03:35:33;;;;;;;3.63;2.73;;;8.60;99.90;;;;;;808698;176;26458;-81
2024/03/02 03:38:05;;;;;;;4.87;2.70;;;8.60;99.90;;;;;;808168;177;26418;-80
2024/03/02 03:40:32;;;;;;;5.07;2.77;;;8.50;99.90;;;;;;805765;176;26462;-81
2024/03/02 03:43:09;;;;;;;4.77;3.03;;;8.50;99.90;;;;;;804930;176;26467;-80
2024/03/02 03:45:44;;;;;;;5.13;2.50;;;8.50;99.90;;;;;;799844;176;26462;-79
2024/03/02 03:48:17;;;;;;;5.50;2.67;;;8.50;99.90;;;;;;814344;176;26436;-80
2024/03/02 03:50:50;;;;;;;5.10;2.77;;;8.60;99.90;;;;;;810430;176;26442;-81
2024/03/02 03:53:27;;;;;;;3.43;2.80;;;8.50;99.90;;;;;;807534;173;26468;-81
2024/03/02 03:56:27;;;;;;;3.60;2.60;;;8.40;99.90;;;;;;800563;178;26419;-80
2024/03/02 03:58:40;;;;;;;2.97;2.60;;;8.40;99.90;;;;;;794491;177;28129;-79
2024/03/02 04:01:12;;;;;;;3.57;2.63;;;8.40;99.90;;;;;;802541;176;26453;-78
2024/03/02 04:03:45;;;;;;;4.37;2.90;;;8.30;99.90;;;;;;801427;176;27003;-80
2024/03/02 04:06:13;;;;;;;3.80;2.70;;;8.20;99.90;;;;;;805290;176;26510;-78
2024/03/02 04:08:45;;;;;;;3.43;2.57;;;8.10;99.90;;;;;;809202;176;26443;-80
2024/03/02 04:11:22;;;;;;;3.67;2.80;;;8.10;99.90;;;;;;805945;175;27071;-79
2024/03/02 04:14:12;;;;;;;3.23;2.83;;;8.10;99.90;;;;;;816662;174;26490;-80
2024/03/02 04:16:50;;;;;;;4.73;2.57;;;8.00;99.90;;;;;;813039;175;26473;-80
2024/03/02 04:19:32;;;;;;;3.67;2.57;;;8.00;99.90;;;;;;808071;175;26466;-80
2024/03/02 04:22:09;;;;;;;3.73;2.93;;;7.90;99.90;;;;;;807002;176;26438;-81
2024/03/02 04:27:17;;;;;;;5.47;3.10;;;7.90;99.90;;;;;;810793;176;26574;-81
2024/03/02 04:29:50;;;;;;;4.37;3.00;;;8.00;99.90;;;;;;802027;179;26485;-80
2024/03/02 04:32:19;;;;;;;3.17;2.60;;;8.00;99.90;;;;;;812406;171;26453;-83
2024/03/02 04:35:10;;;;;;;6.03;2.97;;;8.10;99.90;;;;;;794535;177;26431;-82
2024/03/02 04:40:11;;;;;;;4.00;2.90;;;8.20;99.90;;;;;;803330;170;26486;-79
2024/03/02 04:42:38;;;;;;;3.90;2.83;;;8.10;99.90;;;;;;801342;179;26493;-80
2024/03/02 04:45:05;;;;;;;6.83;4.30;;;8.10;99.90;;;;;;801113;179;26453;-80
2024/03/02 04:47:32;;;;;;;3.77;2.87;;;8.00;99.90;;;;;;802967;177;26473;-81
2024/03/02 04:49:59;;;;;;;4.33;3.17;;;7.90;99.90;;;;;;809946;177;26479;-79
2024/03/02 04:52:25;;;;;;;5.30;3.30;;;7.90;99.90;;;;;;799210;177;26494;-79
2024/03/02 04:57:24;;;;;;;3.80;3.13;;;7.80;99.90;;;;;;797852;180;26425;-80
2024/03/02 04:59:51;;;;;;;3.60;2.90;;;7.80;99.90;;;;;;797783;180;26424;-80
2024/03/02 05:02:18;;;;;;;5.87;3.10;;;7.80;99.90;;;;;;798315;180;26417;-80
2024/03/02 05:04:45;;;;;;;4.47;3.03;;;7.70;99.90;;;;;;798350;180;26432;-80
2024/03/02 05:07:12;;;;;;;4.43;2.80;;;7.60;99.90;;;;;;797650;179;26432;-80
2024/03/02 05:09:39;;;;;;;5.50;3.30;;;7.60;99.90;;;;;;797671;179;26428;-80
2024/03/02 05:14:51;;;;;;;5.33;3.57;;;7.50;99.90;;;;;;791610;180;26447;-80
2024/03/02 05:17:17;;;;;;;5.97;3.23;;;7.40;99.90;;;;;;797620;179;26445;-80
2024/03/02 05:19:44;;;;;;;4.90;3.20;;;7.30;99.90;;;;;;797664;179;26437;-81
2024/03/02 05:22:11;;;;;;;4.40;3.37;;;7.30;99.90;;;;;;796911;179;26425;-78
2024/03/02 05:24:37;;;;;;;4.20;3.27;;;7.40;99.90;;;;;;818665;173;26470;-78
2024/03/02 05:27:04;;;;;;;5.43;3.50;;;7.40;99.90;;;;;;817667;174;26387;-79
2024/03/02 05:29:31;;;;;;;4.37;3.37;;;7.40;99.90;;;;;;816482;175;26392;-80
2024/03/02 05:31:57;;;;;;;6.90;3.63;;;7.40;99.90;;;;;;817611;175;26919;-79
2024/03/02 05:34:24;;;;;;;5.13;3.40;;;7.30;99.90;;;;;;820263;174;26436;-80
2024/03/02 05:36:51;;;;;;;4.67;3.30;;;7.30;99.90;;;;;;813771;174;26382;-78
2024/03/02 05:39:17;;;;;;;5.87;3.53;;;7.30;99.90;;;;;;816587;175;26403;-80
2024/03/02 05:41:44;;;;;;;6.47;3.40;;;7.30;99.90;;;;;;821444;174;26404;-81
2024/03/02 05:44:12;;;;;;;6.53;3.67;;;7.30;99.90;;;;;;815894;174;26388;-80
2024/03/02 05:46:38;;;;;;;6.27;3.70;;;7.30;99.90;;;;;;818812;174;26406;-80
2024/03/02 05:49:04;;;;;;;5.33;3.50;;;7.40;99.90;;;;;;815098;174;26414;-80
2024/03/02 05:51:31;;;;;;;5.90;3.27;;;7.30;99.90;;;;;;795952;179;26446;-78
2024/03/02 05:53:58;;;;;;;6.97;3.97;;;7.30;99.90;;;;;;815166;174;26405;-80
2024/03/02 05:56:25;;;;;;;4.37;3.50;;;7.40;99.90;;;;;;799741;179;26423;-80
2024/03/02 06:01:28;;;;;;;6.07;4.03;;;7.50;99.90;;;;;;814066;174;26408;-79
2024/03/02 06:03:51;;;;;;;6.03;3.50;;;7.60;99.90;;;;;;812390;175;26457;-80
2024/03/02 06:06:20;;;;;;;5.93;3.60;;;7.70;99.90;;;;;;792612;178;26425;-80
2024/03/02 06:08:47;;;;;;;6.23;4.17;;;7.70;99.90;;;;;;782876;181;27014;-81
2024/03/02 06:11:13;;;;;;;7.43;3.73;;;7.60;99.90;;;;;;793597;179;26469;-81
2024/03/02 06:13:40;;;;;;;6.50;3.97;;;7.50;99.90;;;;;;793716;179;26979;-81
2024/03/02 06:16:08;;;;;;;6.23;4.23;;;7.50;99.90;;;;;;806766;176;26381;-80
2024/03/02 06:18:34;;;;;;;5.10;3.97;;;7.50;99.90;;;;;;801838;179;26448;-81
2024/03/02 06:21:01;;;;;;;6.13;3.77;;;7.50;99.90;;;;;;818963;174;26404;-81
2024/03/02 06:23:28;;;;;;;5.53;4.43;;;7.50;99.90;;;;;;802065;178;26428;-81
2024/03/02 06:25:55;;;;;;;7.03;4.20;;;7.40;99.90;;;;;;819505;176;26920;-81
2024/03/02 06:28:22;;;;;;;6.90;4.10;;;7.40;99.90;;;;;;802199;178;26475;-81
2024/03/02 06:30:49;;;;;;;7.10;3.93;;;7.50;99.90;;;;;;819186;174;26393;-80
2024/03/02 06:33:15;;;;;;;8.43;5.23;;;7.50;99.90;;;;;;802045;178;26420;-80
2024/03/02 06:35:42;;;;;;;6.10;4.17;;;7.40;99.90;;;;;;820951;173;26394;-81
2024/03/02 06:38:09;;;;;;;7.53;4.17;;;7.40;99.90;;;;;;804324;178;26610;-80
2024/03/02 06:40:39;;;;;;;12.17;5.53;;;7.50;99.90;;;;;;820851;174;26978;-79
2024/03/02 06:43:03;;;;;;;6.77;3.90;;;7.50;99.90;;;;;;803499;179;26438;-80
2024/03/02 06:45:31;;;;;;;6.77;3.60;;;7.50;99.90;;;;;;820453;175;26931;-81
2024/03/02 06:47:57;;;;;;;7.63;3.93;;;7.60;99.90;;;;;;803172;179;26460;-80
2024/03/02 06:50:24;;;;;;;9.20;4.00;;;7.50;99.90;;;;;;820363;175;26409;-79
2024/03/02 06:52:51;;;;;;;6.67;4.17;;;7.50;99.90;;;;;;803208;178;26427;-80
2024/03/02 06:55:18;;;;;;;6.63;4.30;;;7.60;99.90;;;;;;819867;174;26388;-81
2024/03/02 06:57:45;;;;;;;7.40;4.20;;;7.50;99.90;;;;;;802664;178;26439;-78
2024/03/02 07:00:12;;;;;;;7.53;4.67;;;7.40;99.90;;;;;;819814;174;27135;-80
2024/03/02 07:02:41;;;;;;;6.70;4.33;;;7.50;99.90;;;;;;802649;178;26416;-80
2024/03/02 07:05:07;;;;;;;7.77;4.57;;;7.50;99.90;;;;;;811856;172;26390;-80
2024/03/02 07:07:34;;;;;;;7.73;4.30;;;7.60;99.90;;;;;;801602;179;26445;-80
2024/03/02 07:10:00;;;;;;;6.60;4.07;;;7.70;99.90;;;;;;810852;176;26727;-80
2024/03/02 07:12:27;;;;;;;6.43;4.57;;;7.70;99.90;;;;;;801101;178;26505;-80
2024/03/02 07:15:28;;;;;;;6.37;3.93;;;7.80;99.90;;;;;;793500;181;26972;-80
2024/03/02 07:17:39;;;;;;;6.63;4.13;;;7.90;99.90;;;;;;793620;181;26472;-80
2024/03/02 07:20:07;;;;;;;6.43;4.20;;;8.00;99.90;;;;;;793834;179;26408;-79
2024/03/02 07:22:34;;;;;;;7.50;4.30;;;8.10;99.90;;;;;;793814;181;26424;-80
2024/03/02 07:25:01;;;;;;;7.17;4.30;;;8.10;99.90;;;;;;798274;180;26447;-79
2024/03/02 07:27:27;;;;;;;6.57;4.27;;;8.20;99.90;;;;;;798419;178;26444;-81
2024/03/02 07:29:54;;;;;;;8.00;4.03;;;8.20;99.90;;;;;;798453;180;26433;-81
2024/03/02 07:32:21;;;;;;;7.87;4.23;;;8.30;99.90;;;;;;798328;178;26428;-81
2024/03/02 07:34:47;;;;;;;10.60;4.47;;;8.30;99.90;;;;;;800706;178;26744;-81
2024/03/02 07:37:14;;;;;;;6.67;3.97;;;8.40;99.90;;;;;;810369;176;26954;-81
2024/03/02 07:39:41;;;;;;;6.10;4.17;;;8.40;99.90;;;;;;801325;178;26430;-80
2024/03/02 07:42:08;;;;;;;4.90;4.10;;;8.40;99.90;;;;;;794271;179;26461;-80
2024/03/02 07:44:36;;;;;;;8.63;4.07;;;8.50;99.90;;;;;;777134;183;26386;-80
2024/03/02 07:47:03;;;;;;;7.27;4.20;;;8.60;99.90;;;;;;804628;177;26407;-80
2024/03/02 07:49:29;;;;;;;8.10;4.10;;;8.60;99.90;;;;;;785418;180;26487;-80
2024/03/02 07:51:56;;;;;;;6.47;4.20;;;8.60;99.90;;;;;;798572;180;26421;-81
2024/03/02 07:54:23;;;;;;;10.13;4.67;;;8.60;99.90;;;;;;821255;175;26440;-80
2024/03/02 07:56:51;;;;;;;6.30;4.10;;;8.60;99.90;;;;;;802619;179;27493;-80
2024/03/02 07:59:18;;;;;;;6.10;4.37;;;8.60;99.90;;;;;;818851;175;26409;-80
2024/03/02 08:01:45;;;;;;;8.63;4.93;;;8.60;99.90;;;;;;818446;175;26434;-81
2024/03/02 08:04:12;;;;;;;7.87;4.70;;;8.60;99.90;;;;;;802829;179;26448;-81
2024/03/02 08:06:39;;;;;;;6.13;4.37;;;8.70;99.90;;;;;;818395;173;26371;-80
2024/03/02 08:09:10;;;;;;;7.57;5.43;;;8.70;99.90;;;;;;802486;179;26446;-80
2024/03/02 08:11:37;;;;;;;7.37;4.67;;;8.80;99.90;;;;;;818062;175;26554;-80
2024/03/02 08:14:04;;;;;;;6.93;4.03;;;8.90;99.90;;;;;;818292;175;26378;-77
2024/03/02 08:16:31;;;;;;;7.47;4.70;;;9.00;99.90;;;;;;802123;178;27031;-79
2024/03/02 08:18:59;;;;;;;6.40;4.90;;;9.00;99.90;;;;;;817887;175;26405;-80
2024/03/02 08:21:25;;;;;;;12.47;5.27;;;9.20;99.90;;;;;;801480;178;26424;-79
2024/03/02 08:23:53;;;;;;;7.53;4.67;;;9.30;99.90;;;;;;817020;175;26394;-79
2024/03/02 08:26:21;;;;;;;6.80;4.50;;;9.50;99.90;;;;;;800964;179;26482;-79
2024/03/02 08:28:48;;;;;;;6.87;4.83;;;9.70;99.90;;;;;;816972;176;26945;-79
2024/03/02 08:31:15;;;;;;;8.23;4.83;;;9.80;99.90;;;;;;801005;179;26478;-80
2024/03/02 08:33:42;;;;;;;6.20;4.37;;;9.90;99.90;;;;;;816926;176;26380;-81
2024/03/02 08:36:09;;;;;;;4.40;3.90;;;10.10;99.90;;;;;;801147;179;26428;-80
2024/03/02 08:38:36;;;;;;;9.33;5.57;;;10.30;99.90;;;;;;817232;176;26392;-80
2024/03/02 08:41:03;;;;;;;8.93;4.03;;;10.50;99.90;;;;;;817680;176;26386;-80
2024/03/02 08:43:29;;;;;;;7.53;4.03;;;10.40;99.90;;;;;;814873;169;26455;-77
2024/03/02 08:45:56;;;;;;;6.30;4.00;;;10.50;99.90;;;;;;785662;179;26500;-77
2024/03/02 08:48:23;;;;;;;6.77;3.33;;;10.60;99.90;;;;;;786663;179;27026;-77
2024/03/02 08:50:49;;;;;;;7.73;3.10;;;10.50;99.90;;;;;;806547;176;26994;-74
2024/03/02 08:53:18;;;;;;;6.33;3.47;;;10.60;99.90;;;;;;810298;176;26490;-77
2024/03/02 08:55:43;;;;;;;4.53;3.27;;;10.50;99.90;;;;;;813819;172;26416;-78
2024/03/02 08:58:10;;;;;;;7.70;3.43;;;10.50;99.90;;;;;;813917;172;26467;-78
2024/03/02 09:00:36;;;;;;;7.47;3.73;;;10.60;99.90;;;;;;818562;174;26476;-77
2024/03/02 09:03:03;;;;;;;6.90;3.23;;;10.70;99.90;;;;;;815616;175;27033;-78
2024/03/02 09:05:30;;;;;;;5.77;3.70;;;10.60;99.90;;;;;;815319;175;26459;-77
2024/03/02 09:07:57;;;;;;;4.80;3.13;;;10.70;99.90;;;;;;790986;179;26412;-77
2024/03/02 09:10:23;;;;;;;5.83;3.33;;;10.80;99.90;;;;;;809738;177;26471;-77
2024/03/02 09:12:50;;;;;;;4.13;3.07;;;10.90;99.90;;;;;;816359;175;26449;-79
2024/03/02 09:15:17;;;;;;;4.43;3.30;;;11.00;99.40;;;;;;814633;175;26406;-79
2024/03/02 09:17:44;;;;;;;6.20;3.63;;;11.00;99.80;;;;;;814492;174;26414;-79
2024/03/02 09:20:11;;;;;;;6.77;3.33;;;11.10;99.80;;;;;;813117;175;26956;-77
2024/03/02 09:22:37;;;;;;;5.83;3.10;;;11.20;99.50;;;;;;796780;179;26552;-77
2024/03/02 09:25:04;;;;;;;5.27;3.40;;;11.30;98.90;;;;;;815413;175;27022;-78
2024/03/02 09:27:31;;;;;;;6.17;3.60;;;11.40;98.90;;;;;;815493;174;26456;-77
2024/03/02 09:29:57;;;;;;;4.67;3.27;;;11.50;98.70;;;;;;788162;179;26471;-78
2024/03/02 09:32:24;;;;;;;7.40;3.43;;;11.50;99.40;;;;;;802302;176;26425;-77
2024/03/02 09:34:52;;;;;;;8.40;3.40;;;11.60;98.20;;;;;;805111;176;27033;-78
2024/03/02 09:37:17;;;;;;;8.97;3.63;;;11.60;97.60;;;;;;813278;175;26440;-78
2024/03/02 09:39:45;;;;;;;5.03;3.10;;;11.90;97.80;;;;;;794947;179;26533;-77
2024/03/02 09:42:10;;;;;;;7.30;3.40;;;11.90;97.20;;;;;;801349;176;26439;-78
2024/03/02 09:44:37;;;;;;;5.00;3.23;;;12.00;97.80;;;;;;814068;175;26489;-77
2024/03/02 09:47:04;;;;;;;4.90;3.23;;;12.10;97.20;;;;;;816988;175;26439;-78
2024/03/02 09:49:30;;;;;;;7.10;3.30;;;12.10;97.00;;;;;;817717;175;26430;-77
2024/03/02 09:51:57;;;;;;;6.07;3.20;;;11.80;96.30;;;;;;790738;179;26432;-78
2024/03/02 09:54:23;;;;;;;7.53;3.43;;;11.80;97.50;;;;;;790839;179;26508;-78
2024/03/02 09:56:51;;;;;;;8.60;3.00;;;12.00;96.80;;;;;;795958;179;26467;-77
2024/03/02 09:59:19;;;;;;;6.03;2.90;;;12.00;96.60;;;;;;796416;179;26434;-76
2024/03/02 10:01:55;;;;;;;3.87;2.70;;;12.00;96.10;;;;;;804154;176;26431;-78
2024/03/02 10:04:22;;;;;;;8.17;2.80;;;12.00;96.40;;;;;;814379;175;26440;-78
2024/03/02 10:06:48;;;;;;;4.03;3.10;;;11.90;96.20;;;;;;815034;175;26390;-77
2024/03/02 10:09:15;;;;;;;6.60;2.70;;;12.00;96.30;;;;;;817713;175;26975;-77
2024/03/02 10:11:41;;;;;;;5.23;2.80;;;12.00;95.60;;;;;;815295;173;26410;-77
2024/03/02 10:14:11;;;;;;;4.90;2.60;;;11.90;96.50;;;;;;816693;175;28134;-76
2024/03/02 10:16:38;;;;;;;5.50;3.10;;;12.00;96.10;;;;;;790287;179;26455;-77
2024/03/02 10:19:18;;;;;;;8.00;4.03;;;12.00;96.30;;;;;;818419;175;26423;-79
2024/03/02 10:21:47;;;;;;;7.57;3.37;;;12.20;95.80;;;;;;793838;180;26389;-78
2024/03/02 10:24:14;;;;;;;5.53;3.10;;;12.20;96.00;;;;;;806264;175;26501;-78
2024/03/02 10:26:41;;;;;;;8.43;3.70;;;12.20;96.30;;;;;;810132;175;27073;-77
2024/03/02 10:29:07;;;;;;;4.83;3.00;;;12.10;95.60;;;;;;817974;175;26430;-77
2024/03/02 10:31:34;;;;;;;4.67;2.93;;;12.00;95.50;;;;;;811385;175;26468;-77
2024/03/02 10:34:01;;;;;;;7.80;3.53;;;12.10;96.20;;;;;;816415;175;26497;-77
2024/03/02 10:36:27;;;;;;;4.93;2.60;;;12.20;95.90;;;;;;803716;176;26449;-78
2024/03/02 10:38:55;;;;;;;5.80;3.20;;;12.50;95.10;;;;;;816016;175;26969;-77
2024/03/02 10:41:24;;;;;;;5.53;3.63;;;12.80;94.50;;;;;;816842;175;26405;-78
2024/03/02 10:43:51;;;;;;;4.33;2.97;;;13.00;93.70;;;;;;789151;180;26514;-77
2024/03/02 10:46:18;;;;;;;6.50;3.10;;;12.80;93.30;;;;;;813168;175;26476;-78
2024/03/02 10:48:44;;;;;;;5.03;3.20;;;12.90;94.00;;;;;;795884;180;26466;-78
2024/03/02 10:51:11;;;;;;;5.07;3.30;;;12.70;93.10;;;;;;817277;175;26558;-78
2024/03/02 10:53:37;;;;;;;5.63;3.37;;;12.70;94.20;;;;;;792010;176;26471;-78
2024/03/02 10:56:04;;;;;;;4.37;2.90;;;13.00;94.70;;;;;;795843;178;26463;-79
2024/03/02 10:58:32;;;;;;;7.50;3.30;;;13.50;92.20;;;;;;792614;180;26509;-77
2024/03/02 11:00:58;;;;;;;4.97;3.23;;;14.50;90.50;;;;;;807253;176;26992;-78
2024/03/02 11:03:25;;;;;;;4.80;3.10;;;15.50;85.80;;;;;;807409;176;26476;-77
2024/03/02 11:05:51;;;;;;;4.70;2.90;;;16.10;77.30;;;;;;810151;175;26430;-77
2024/03/02 11:08:19;;;;;;;6.90;3.73;;;16.70;73.90;;;;;;797822;179;27000;-78
2024/03/02 11:10:48;;;;;;;6.53;2.90;;;17.10;69.90;;;;;;800528;177;26430;-78
2024/03/02 11:13:14;;;;;;;5.40;2.90;;;17.50;63.30;;;;;;817133;175;26445;-79
2024/03/02 11:15:41;;;;;;;6.93;2.90;;;17.60;57.70;;;;;;811888;175;26410;-78
2024/03/02 11:18:08;;;;;;;4.53;3.00;;;17.50;57.90;;;;;;783978;180;27066;-77
2024/03/02 11:20:36;;;;;;;6.90;3.00;;;17.80;59.60;;;;;;814829;176;26417;-77
2024/03/02 11:23:06;;;;;;;6.17;3.53;;;18.20;56.30;;;;;;807939;175;26459;-77
2024/03/02 11:25:32;;;;;;;4.77;3.23;;;18.20;55.40;;;;;;810730;175;26974;-77
2024/03/02 11:28:00;;;;;;;4.60;2.60;;;18.60;55.60;;;;;;812740;175;26393;-78
2024/03/02 11:30:48;;;;;;;5.40;2.80;;;18.50;53.70;;;;;;823433;175;26408;-78
2024/03/02 11:33:16;;;;;;;3.27;2.60;;;18.50;52.00;;;;;;794206;179;26468;-77
2024/03/02 11:35:43;;;;;;;6.23;3.23;;;18.00;57.90;;;;;;816890;175;26405;-77
2024/03/02 11:38:10;;;;;;;4.17;2.53;;;17.80;54.90;;;;;;805344;176;26474;-76
2024/03/02 11:40:37;;;;;;;4.83;2.90;;;17.90;56.40;;;;;;795027;180;26441;-76
2024/03/02 11:43:04;;;;;;;4.63;2.40;;;18.50;54.60;;;;;;802341;177;26470;-77
2024/03/02 11:45:31;;;;;;;5.07;2.83;;;18.80;52.90;;;;;;810856;175;26975;-79
2024/03/02 11:47:59;;;;;;;5.50;2.80;;;19.00;52.40;;;;;;816487;172;26409;-79
2024/03/02 11:50:30;;;;;;;3.40;2.60;;;18.80;50.80;;;;;;818932;175;26414;-78
2024/03/02 11:52:57;;;;;;;5.83;3.50;;;19.50;48.80;;;;;;818619;174;27044;-79
2024/03/02 11:55:34;;;;;;;5.17;3.00;;;19.80;48.10;;;;;;795516;173;26609;31
2024/03/02 11:58:13;;;;;;;;;;;;;;;;;;;;;
2024/03/02 12:00:29;;;;;;;4.73;2.70;;;17.80;52.80;;;;;;782040;178;26647;-78
2024/03/02 12:03:02;;;;;;;5.77;3.20;;;18.00;59.20;;;;;;794207;180;26443;-78
2024/03/02 12:05:28;;;;;;;5.23;2.97;;;18.40;54.20;;;;;;829134;173;26412;-78
2024/03/02 12:07:57;;;;;;;5.10;2.87;;;17.80;54.90;;;;;;829528;170;26486;-79
2024/03/02 12:10:24;;;;;;;4.63;3.20;;;16.90;65.80;;;;;;830048;173;26360;-79
2024/03/02 12:12:57;;;;;;;3.07;2.23;;;16.00;70.00;;;;;;829499;170;26415;-79
2024/03/02 12:15:24;;;;;;;5.67;3.50;;;15.10;81.00;;;;;;829627;173;26391;-78
2024/03/02 12:17:50;;;;;;;4.83;2.40;;;15.20;86.50;;;;;;828605;172;26758;-78
2024/03/02 12:20:17;;;;;;;5.67;3.00;;;15.20;81.90;;;;;;829175;173;26969;-79
2024/03/02 12:22:44;;;;;;;4.57;2.80;;;15.60;83.00;;;;;;828765;172;26389;-78
2024/03/02 12:25:10;;;;;;;4.00;2.47;;;16.50;77.00;;;;;;829599;172;26391;-79
2024/03/02 12:27:37;;;;;;;4.33;3.07;;;17.00;73.70;;;;;;829631;173;26386;-78
2024/03/02 12:30:04;;;;;;;5.67;2.87;;;17.60;64.10;;;;;;829645;173;26753;-78
2024/03/02 12:32:31;;;;;;;6.70;2.50;;;18.30;58.50;;;;;;829881;172;26964;-78
2024/03/02 12:34:57;;;;;;;3.57;2.33;;;18.40;55.70;;;;;;833812;169;26955;-78
2024/03/02 12:37:24;;;;;;;5.97;2.50;;;18.40;61.10;;;;;;832515;172;26434;-79
2024/03/02 12:39:51;;;;;;;4.93;2.37;;;18.20;55.10;;;;;;830697;172;26416;-79
2024/03/02 12:42:17;;;;;;;3.43;2.13;;;18.10;55.20;;;;;;831668;173;26346;-78
2024/03/02 12:44:44;;;;;;;3.37;2.00;;;18.00;65.60;;;;;;829799;173;26453;-79
2024/03/02 12:47:12;;;;;;;2.67;1.97;;;18.40;58.30;;;;;;830891;173;26989;-80
2024/03/02 12:49:37;;;;;;;3.30;1.97;;;18.90;52.70;;;;;;831464;172;26386;-77
2024/03/02 12:52:04;;;;;;;3.33;1.80;;;18.70;52.40;;;;;;830805;170;26399;-78
2024/03/02 12:54:31;;;;;;;3.27;2.10;;;18.90;58.20;;;;;;829623;171;27020;-78
2024/03/02 12:56:57;;;;;;;2.27;1.90;;;18.50;52.90;;;;;;829922;173;26405;-78
2024/03/02 12:59:26;;;;;;;3.10;2.10;;;18.40;53.40;;;;;;830751;173;26499;-77
2024/03/02 13:01:54;;;;;;;4.23;2.20;;;17.90;57.00;;;;;;829736;173;26403;-78
2024/03/02 13:04:23;;;;;;;3.73;2.30;;;18.60;59.70;;;;;;830466;171;26454;-79
2024/03/02 13:06:51;;;;;;;2.43;2.23;;;20.20;52.40;;;;;;829450;171;26385;-80
2024/03/02 13:09:16;;;;;;;5.70;2.27;;;21.10;49.80;;;;;;830134;170;26394;-79
2024/03/02 13:11:43;;;;;;;5.90;2.80;;;21.10;46.50;;;;;;829213;170;26393;-78
2024/03/02 13:14:09;;;;;;;4.27;2.80;;;20.90;44.70;;;;;;828638;173;26401;-78
2024/03/02 13:16:40;;;;;;;3.20;2.40;;;20.00;47.10;;;;;;830034;173;26389;-79
2024/03/02 13:19:12;;;;;;;2.77;2.30;;;20.30;48.00;;;;;;830564;173;26375;-79
2024/03/02 13:21:38;;;;;;;4.70;2.77;;;20.60;47.00;;;;;;832790;172;26462;-78